Time;durP1;ratioP1;P1;durP2;ratioP2;P2;SDS_P1;SDS_P2;PMS_P1;PMS_P2;Temp;Humidity;BMP_temperature;BMP_pressure;BME280_temperature;BME280_humidity;BME280_pressure;Samples;Min_cycle;Max_cycle;Signal;HPM_P1;HPM_P2
2023/06/06 00:05:15;;;;;;;1.75;1.35;;;10.40;99.90;;;;;;20901287;28;20033;-53
2023/06/06 00:15:17;;;;;;;1.55;1.20;;;10.40;99.90;;;;;;20891830;28;20033;-43
2023/06/06 00:25:20;;;;;;;1.27;1.00;;;10.40;99.90;;;;;;20898875;28;20033;-44
2023/06/06 00:35:22;;;;;;;1.67;1.40;;;10.40;99.90;;;;;;20933441;28;20451;-50
2023/06/06 00:45:23;;;;;;;2.30;1.48;;;10.30;99.90;;;;;;21051758;28;20032;-44
2023/06/06 00:55:25;;;;;;;1.95;1.50;;;10.30;99.90;;;;;;21080685;28;20057;-45
2023/06/06 01:05:27;;;;;;;1.58;1.20;;;10.30;99.90;;;;;;21079691;28;20101;-46
2023/06/06 01:15:35;;;;;;;1.58;1.45;;;10.20;99.90;;;;;;21079210;28;20054;-49
2023/06/06 01:25:40;;;;;;;2.65;1.80;;;10.10;99.90;;;;;;21074452;28;20039;-45
2023/06/06 01:35:55;;;;;;;4.47;1.48;;;10.00;99.90;;;;;;21074200;28;20058;-44
2023/06/06 01:45:58;;;;;;;1.70;1.50;;;9.90;99.90;;;;;;21073792;28;20040;-46
2023/06/06 01:56:00;;;;;;;5.30;2.30;;;9.60;99.90;;;;;;21052821;28;20542;-53
2023/06/06 02:06:03;;;;;;;2.80;2.47;;;9.30;99.90;;;;;;21057178;28;20043;-49
2023/06/06 02:16:05;;;;;;;6.30;2.67;;;9.20;99.90;;;;;;21074631;28;20089;-49
2023/06/06 02:26:07;;;;;;;2.88;2.33;;;9.10;99.90;;;;;;21055331;28;20032;-53
2023/06/06 02:36:08;;;;;;;3.95;2.50;;;9.20;99.90;;;;;;21054498;28;20040;-46
2023/06/06 02:46:10;;;;;;;4.38;2.90;;;9.30;99.90;;;;;;21071878;28;20036;-43
2023/06/06 02:56:12;;;;;;;3.65;2.58;;;9.30;99.90;;;;;;21069292;28;20469;-49
2023/06/06 03:06:15;;;;;;;2.35;1.83;;;9.30;99.90;;;;;;21070200;28;20084;-49
2023/06/06 03:16:17;;;;;;;4.57;2.60;;;9.10;99.90;;;;;;21069670;28;20031;-50
2023/06/06 03:26:20;;;;;;;3.80;2.65;;;9.00;99.90;;;;;;21050395;28;20028;-53
2023/06/06 03:36:22;;;;;;;5.50;2.97;;;8.90;99.90;;;;;;21067922;28;20048;-52
2023/06/06 03:46:25;;;;;;;8.02;4.00;;;9.00;99.90;;;;;;21049041;28;20097;-48
2023/06/06 03:56:27;;;;;;;4.07;3.13;;;9.20;99.90;;;;;;21063049;28;20035;-47
2023/06/06 04:06:28;;;;;;;5.15;3.47;;;9.20;99.90;;;;;;21066442;28;20031;-48
2023/06/06 04:16:33;;;;;;;4.63;3.40;;;9.30;99.90;;;;;;21047714;28;20048;-53
2023/06/06 04:26:36;;;;;;;5.43;3.55;;;9.20;99.90;;;;;;21081764;28;20028;-50
2023/06/06 04:36:40;;;;;;;4.88;2.53;;;9.60;99.90;;;;;;21063881;28;20040;-50
2023/06/06 04:46:43;;;;;;;2.42;2.22;;;9.80;99.90;;;;;;21062921;28;20358;-51
2023/06/06 04:56:47;;;;;;;2.47;2.20;;;10.40;99.90;;;;;;21063614;28;20044;-53
2023/06/06 05:06:50;;;;;;;2.30;2.10;;;10.60;99.90;;;;;;21079824;28;20039;-52
2023/06/06 05:16:55;;;;;;;2.10;1.80;;;10.70;99.90;;;;;;21079189;28;20040;-48
2023/06/06 05:26:56;;;;;;;2.00;1.70;;;10.90;99.90;;;;;;21078292;28;20032;-49
2023/06/06 05:36:58;;;;;;;2.15;1.70;;;11.30;99.90;;;;;;21077802;28;20043;-51
2023/06/06 05:46:59;;;;;;;1.67;1.50;;;11.50;99.90;;;;;;21076701;28;20036;-52
2023/06/06 05:57:01;;;;;;;2.00;1.40;;;11.70;99.90;;;;;;21076168;28;20070;-53
2023/06/06 06:07:04;;;;;;;1.33;1.20;;;12.50;99.90;;;;;;21069816;28;20086;-45
2023/06/06 06:17:06;;;;;;;2.20;1.88;;;13.20;99.90;;;;;;21074408;28;20032;-43
2023/06/06 06:27:08;;;;;;;1.85;1.40;;;13.40;99.90;;;;;;21073239;28;20034;-45
2023/06/06 06:37:09;;;;;;;2.75;2.40;;;14.00;99.90;;;;;;21071079;28;20108;-49
2023/06/06 06:47:13;;;;;;;3.63;2.90;;;14.50;99.90;;;;;;21052999;28;20090;-44
2023/06/06 06:57:16;;;;;;;3.50;3.10;;;14.90;99.90;;;;;;21071373;28;20047;-45
2023/06/06 07:07:18;;;;;;;4.32;3.20;;;16.30;99.90;;;;;;21070715;28;20036;-46
2023/06/06 07:17:20;;;;;;;4.90;3.60;;;17.00;99.90;;;;;;21069751;28;20031;-52
2023/06/06 07:27:21;;;;;;;3.40;3.10;;;17.30;99.90;;;;;;21068511;28;20550;-52
2023/06/06 07:37:23;;;;;;;4.97;3.95;;;17.10;99.90;;;;;;21068628;28;20043;-55
2023/06/06 07:47:25;;;;;;;5.53;4.97;;;17.00;99.90;;;;;;21067281;28;20480;-55
2023/06/06 07:57:27;;;;;;;4.13;3.72;;;16.70;99.90;;;;;;21066053;28;20338;-53
2023/06/06 08:07:29;;;;;;;5.65;3.60;;;16.50;99.90;;;;;;21066348;28;20543;-53
2023/06/06 08:17:30;;;;;;;3.92;3.42;;;17.10;99.90;;;;;;21066038;28;20040;-48
2023/06/06 08:27:32;;;;;;;6.18;3.50;;;17.70;99.90;;;;;;21066562;28;20020;-53
2023/06/06 08:37:33;;;;;;;5.07;3.80;;;17.60;99.90;;;;;;21065346;28;20044;-51
2023/06/06 08:47:37;;;;;;;3.20;2.90;;;17.90;99.90;;;;;;21064759;28;20085;-51
2023/06/06 08:57:41;;;;;;;2.80;2.15;;;19.40;99.90;;;;;;21064624;28;20054;-49
2023/06/06 09:07:43;;;;;;;4.10;2.22;;;20.10;99.90;;;;;;21068432;28;20027;-56
2023/06/06 09:17:46;;;;;;;4.55;3.33;;;21.20;99.90;;;;;;21079224;28;20032;-48
2023/06/06 09:27:53;;;;;;;2.92;2.70;;;21.40;99.90;;;;;;21078003;28;20538;-53
2023/06/06 09:37:56;;;;;;;2.90;2.70;;;20.50;99.90;;;;;;21075201;28;20055;-46
2023/06/06 09:47:59;;;;;;;4.55;4.15;;;20.10;99.90;;;;;;21076551;28;20374;-52
2023/06/06 09:58:02;;;;;;;5.20;4.70;;;19.70;99.90;;;;;;21075990;28;20036;-47
2023/06/06 10:08:09;;;;;;;5.18;4.68;;;20.30;99.90;;;;;;21076043;28;20042;-55
2023/06/06 10:18:12;;;;;;;6.90;6.15;;;19.50;99.90;;;;;;21073536;28;20378;-54
2023/06/06 10:28:20;;;;;;;7.28;5.95;;;18.90;99.90;;;;;;21073581;28;20089;-47
2023/06/06 10:38:22;;;;;;;5.47;4.97;;;18.80;99.90;;;;;;21072575;28;20411;-56
2023/06/06 10:48:40;;;;;;;6.78;6.03;;;20.10;99.90;;;;;;21071771;28;20109;-54
2023/06/06 10:58:44;;;;;;;7.85;6.80;;;21.70;99.90;;;;;;21050945;28;20032;-54
2023/06/06 11:08:57;;;;;;;9.55;5.18;;;21.30;99.90;;;;;;21070070;28;20592;-46
2023/06/06 11:19:11;;;;;;;9.52;8.23;;;21.90;99.90;;;;;;21069618;28;20047;-56
2023/06/06 11:29:12;;;;;;;10.15;8.98;;;21.20;99.90;;;;;;21068308;28;20085;-46
2023/06/06 11:39:14;;;;;;;8.30;7.07;;;19.70;99.90;;;;;;21068325;28;20098;-55
2023/06/06 11:49:17;;;;;;;9.18;8.15;;;21.30;99.90;;;;;;21067196;28;20043;-56
2023/06/06 11:59:20;;;;;;;7.07;6.38;;;21.60;99.90;;;;;;21067077;28;20028;-44
2023/06/06 12:09:23;;;;;;;8.38;7.18;;;22.10;99.90;;;;;;21064214;28;20036;-55
2023/06/06 12:19:25;;;;;;;7.15;6.45;;;20.60;99.90;;;;;;21047619;28;20541;-55
2023/06/06 12:29:31;;;;;;;6.90;5.20;;;19.60;99.90;;;;;;21065349;28;20326;-46
2023/06/06 12:39:32;;;;;;;5.35;4.70;;;19.60;99.90;;;;;;21032941;28;20039;-50
2023/06/06 12:49:36;;;;;;;5.65;4.95;;;20.50;99.90;;;;;;21081152;28;20040;-55
2023/06/06 12:59:41;;;;;;;5.80;4.82;;;20.80;99.90;;;;;;21059834;28;20044;-54
2023/06/06 13:09:43;;;;;;;6.32;5.22;;;19.90;99.90;;;;;;21078030;28;20036;-54
2023/06/06 13:19:45;;;;;;;5.72;5.13;;;19.60;99.90;;;;;;21079035;28;20043;-45
2023/06/06 13:29:47;;;;;;;5.20;4.70;;;21.70;99.90;;;;;;21078016;28;20461;-54
2023/06/06 13:39:49;;;;;;;5.50;5.00;;;20.80;99.90;;;;;;21077566;28;20067;-54
2023/06/06 13:49:51;;;;;;;7.10;5.38;;;20.00;99.90;;;;;;21075397;28;20036;-55
2023/06/06 13:59:53;;;;;;;8.40;6.70;;;20.80;99.90;;;;;;21075498;28;20032;-55
2023/06/06 14:09:54;;;;;;;6.60;5.25;;;20.60;99.90;;;;;;21072497;28;20036;-55
2023/06/06 14:19:56;;;;;;;7.25;4.82;;;20.20;99.90;;;;;;21075303;28;20028;-55
2023/06/06 14:29:58;;;;;;;5.80;4.90;;;19.00;99.90;;;;;;21073349;28;20040;-51
2023/06/06 14:40:01;;;;;;;4.82;4.32;;;18.20;99.90;;;;;;21072614;28;20051;-48
2023/06/06 14:50:03;;;;;;;5.40;4.88;;;18.10;99.90;;;;;;21071859;28;20024;-54
2023/06/06 15:00:08;;;;;;;5.65;5.15;;;18.30;99.90;;;;;;21071245;28;20078;-52
2023/06/06 15:10:09;;;;;;;5.55;5.03;;;18.00;99.90;;;;;;21070018;28;20032;-51
2023/06/06 15:20:11;;;;;;;6.38;5.50;;;17.60;99.90;;;;;;21069558;28;20485;-51
2023/06/06 15:30:13;;;;;;;8.27;7.15;;;17.50;99.90;;;;;;21068747;28;20038;-53
2023/06/06 15:40:16;;;;;;;9.02;8.13;;;17.50;99.90;;;;;;21067783;28;20366;-45
2023/06/06 15:50:17;;;;;;;9.95;8.70;;;17.80;99.90;;;;;;21067737;28;20032;-52
2023/06/06 16:00:22;;;;;;;11.00;9.90;;;17.70;99.90;;;;;;21032201;28;20085;-47
2023/06/06 16:10:24;;;;;;;11.32;10.15;;;17.20;99.90;;;;;;21064459;28;20024;-55
2023/06/06 16:20:26;;;;;;;17.30;10.40;;;16.80;99.90;;;;;;21065189;28;20342;-50
2023/06/06 16:30:27;;;;;;;17.30;14.10;;;16.30;99.90;;;;;;21065542;28;20032;-52
2023/06/06 16:40:29;;;;;;;17.05;14.38;;;15.60;99.90;;;;;;21062749;28;20036;-51
2023/06/06 16:50:31;;;;;;;18.08;16.17;;;15.30;99.90;;;;;;21046687;28;20047;-53
2023/06/06 17:00:33;;;;;;;21.27;17.52;;;15.10;99.90;;;;;;21062522;28;20035;-52
2023/06/06 17:10:34;;;;;;;17.92;14.25;;;15.00;99.90;;;;;;21064035;28;20028;-50
2023/06/06 17:20:36;;;;;;;16.38;14.23;;;15.00;99.90;;;;;;21061883;28;20389;-49
2023/06/06 17:30:38;;;;;;;13.90;12.57;;;15.00;99.90;;;;;;21068898;28;20040;-45
2023/06/06 17:40:40;;;;;;;16.98;15.18;;;14.50;99.90;;;;;;21078454;28;20113;-44
2023/06/06 17:50:42;;;;;;;19.73;17.52;;;14.10;99.90;;;;;;21076857;28;20093;-53
2023/06/06 18:00:44;;;;;;;27.20;19.80;;;13.70;99.90;;;;;;21076090;28;20031;-50
2023/06/06 18:10:46;;;;;;;26.73;22.92;;;13.50;99.90;;;;;;21075362;28;20035;-53
2023/06/06 18:20:47;;;;;;;29.67;22.58;;;13.30;99.90;;;;;;21074861;28;20427;-51
2023/06/06 18:30:49;;;;;;;27.63;22.83;;;12.90;99.90;;;;;;21073291;28;20028;-47
2023/06/06 18:40:51;;;;;;;29.85;22.73;;;12.60;99.90;;;;;;21069173;28;20370;-55
2023/06/06 18:50:53;;;;;;;37.85;28.25;;;12.20;99.90;;;;;;21071500;28;20450;-51
2023/06/06 19:00:55;;;;;;;36.20;27.85;;;12.00;99.90;;;;;;21071269;28;20031;-51
2023/06/06 19:10:57;;;;;;;43.97;31.65;;;11.70;99.90;;;;;;21071157;28;20077;-49
2023/06/06 19:20:59;;;;;;;40.10;27.23;;;11.50;99.90;;;;;;21051913;28;20534;-52
2023/06/06 19:31:01;;;;;;;34.42;24.75;;;11.30;99.90;;;;;;21067048;28;20032;-51
2023/06/06 19:41:04;;;;;;;23.77;18.08;;;11.00;99.90;;;;;;21064802;28;20047;-47
2023/06/06 19:51:09;;;;;;;26.52;18.77;;;10.60;99.90;;;;;;21067492;28;20040;-52
2023/06/06 20:01:11;;;;;;;23.50;18.08;;;10.50;99.90;;;;;;21067099;28;20036;-53
2023/06/06 20:11:13;;;;;;;25.05;18.45;;;10.50;99.90;;;;;;21062509;28;20134;-45
2023/06/06 20:21:15;;;;;;;29.55;20.98;;;10.40;99.90;;;;;;21066622;28;20032;-52
2023/06/06 20:31:17;;;;;;;23.02;17.50;;;10.40;99.90;;;;;;21065576;28;20028;-48
2023/06/06 20:41:22;;;;;;;25.63;20.00;;;10.40;99.90;;;;;;21047195;28;20493;-52
2023/06/06 20:51:24;;;;;;;27.20;20.17;;;10.30;99.90;;;;;;21065021;28;20036;-48
2023/06/06 21:01:26;;;;;;;25.58;18.45;;;10.30;99.90;;;;;;21068156;28;20089;-49
2023/06/06 21:11:28;;;;;;;24.80;17.98;;;10.30;99.90;;;;;;21079836;28;20036;-45
2023/06/06 21:21:30;;;;;;;30.27;18.95;;;10.40;99.90;;;;;;21079564;28;20473;-45
2023/06/06 21:31:31;;;;;;;22.70;18.27;;;10.50;99.90;;;;;;21078692;28;20074;-50
2023/06/06 21:41:33;;;;;;;23.02;17.23;;;10.60;99.90;;;;;;21077794;28;20502;-52
2023/06/06 21:51:36;;;;;;;16.65;12.75;;;10.70;99.90;;;;;;21076815;28;20465;-49
2023/06/06 22:01:37;;;;;;;13.68;10.75;;;10.80;99.90;;;;;;21075967;28;20085;-46
2023/06/06 22:11:39;;;;;;;15.30;11.50;;;10.90;99.90;;;;;;21073902;28;20028;-45
2023/06/06 22:21:40;;;;;;;18.23;14.15;;;11.00;99.90;;;;;;21074987;28;20094;-50
2023/06/06 22:31:42;;;;;;;18.08;13.68;;;10.90;99.90;;;;;;21073434;28;20385;-49
2023/06/06 22:41:43;;;;;;;17.45;13.52;;;11.10;99.90;;;;;;21072580;28;20097;-46
2023/06/06 22:51:45;;;;;;;19.30;14.45;;;11.10;99.90;;;;;;21072062;28;20036;-43
2023/06/06 23:01:50;;;;;;;20.48;15.05;;;11.10;99.90;;;;;;21071567;28;20040;-53
2023/06/06 23:11:51;;;;;;;21.88;15.50;;;11.10;99.90;;;;;;21069161;28;20052;-52
2023/06/06 23:21:55;;;;;;;22.27;15.90;;;11.00;99.90;;;;;;21069929;28;20135;-45
2023/06/06 23:31:56;;;;;;;17.10;13.75;;;10.80;99.90;;;;;;21068498;28;20086;-46
2023/06/06 23:41:58;;;;;;;18.40;14.13;;;10.70;99.90;;;;;;21068220;28;20043;-52
2023/06/06 23:51:59;;;;;;;21.10;16.20;;;10.50;99.90;;;;;;21067988;28;20028;-45
